Geneseo, Kansas
Current Conditions -  °F | °C
As of 4:53 AM on Monday 22 Dec 2014 (Local Time) from KSLN Reporting Station
Haze Haze  
Wind Chill: 41°   Ceiling: 500
Heat Index: 45°   Visibility: 5mi
Dew Point: 43°   Wind: 7mph
Humidity: 93%   Direction: 170°S
Pressure: 29.55"   Gusts: NA
Location:  38.52°N, 98.16°W
Report Text: KSLN 221053Z AUTO 17006KT 5SM BR OVC005 07/06 A2955 RMK AO2 RAB24E37 SLP007 P0000 T00720061
Loading
Personal Weather Stations






























Interactive Weather Map New forecast layout! Learn more

10-Day Weather Forecast

Advertisements
Track Severe Weather on mobile